createdAt,value
2018-12-20T00:00:47.138Z,22.93
2018-12-20T00:03:16.273Z,32.40
2018-12-20T00:05:45.314Z,25.80
2018-12-20T00:08:14.487Z,32.50
2018-12-20T00:10:43.584Z,27.43
2018-12-20T00:13:12.815Z,26.83
2018-12-20T00:15:41.978Z,30.33
2018-12-20T00:18:11.245Z,29.23
2018-12-20T00:20:40.412Z,33.10
2018-12-20T00:23:09.790Z,26.17
2018-12-20T00:25:38.976Z,27.90
2018-12-20T00:28:08.176Z,29.10
2018-12-20T00:30:37.456Z,21.67
2018-12-20T00:33:06.605Z,29.90
2018-12-20T00:35:35.818Z,26.80
2018-12-20T00:38:05.051Z,29.10
2018-12-20T00:40:34.212Z,25.83
2018-12-20T00:43:03.452Z,26.97
2018-12-20T00:45:32.744Z,25.93
2018-12-20T00:48:01.866Z,20.50
2018-12-20T00:50:31.213Z,23.63
2018-12-20T00:53:00.429Z,26.10
2018-12-20T00:55:29.633Z,27.33
2018-12-20T00:57:58.770Z,28.17
2018-12-20T01:00:28.115Z,17.30
2018-12-20T01:02:57.287Z,24.60
2018-12-20T01:05:26.624Z,17.27
2018-12-20T01:07:55.662Z,18.67
2018-12-20T01:10:24.871Z,20.43
2018-12-20T01:12:53.967Z,17.87
2018-12-20T01:15:23.190Z,22.40
2018-12-20T01:17:52.318Z,20.03
2018-12-20T01:20:21.590Z,18.10
2018-12-20T01:22:50.788Z,24.00
2018-12-20T01:25:20.049Z,18.07
2018-12-20T01:27:49.283Z,18.53
2018-12-20T01:30:18.529Z,20.60
2018-12-20T01:32:47.791Z,16.53
2018-12-20T01:35:17.017Z,18.50
2018-12-20T01:37:46.399Z,20.23
2018-12-20T01:40:15.575Z,14.53
2018-12-20T01:42:44.814Z,15.23
2018-12-20T01:45:14.162Z,16.80
2018-12-20T01:47:43.370Z,15.53
2018-12-20T01:50:12.483Z,14.10
2018-12-20T01:52:41.592Z,12.37
2018-12-20T01:55:10.746Z,15.20
2018-12-20T01:57:40.211Z,13.70
2018-12-20T02:00:11.065Z,16.30
2018-12-20T02:02:40.309Z,13.40
2018-12-20T02:05:09.571Z,12.57
2018-12-20T02:07:39.542Z,11.73
2018-12-20T02:10:08.916Z,14.17
2018-12-20T02:12:38.043Z,12.07
2018-12-20T02:15:07.546Z,14.90
2018-12-20T02:17:36.709Z,15.73
2018-12-20T02:20:06.170Z,12.10
2018-12-20T02:22:35.568Z,11.63
2018-12-20T02:25:04.982Z,12.27
2018-12-20T02:27:34.136Z,11.43
2018-12-20T02:30:03.384Z,11.53
2018-12-20T02:32:32.553Z,10.87
2018-12-20T02:35:02.068Z,14.73
2018-12-20T02:37:31.570Z,10.90
2018-12-20T02:40:00.866Z,12.13
2018-12-20T02:42:30.382Z,15.17
2018-12-20T02:45:00.283Z,10.80
2018-12-20T02:47:30.544Z,9.70
2018-12-20T02:49:59.816Z,10.87
2018-12-20T02:52:29.199Z,10.00
2018-12-20T02:54:58.306Z,13.83
2018-12-20T02:57:27.451Z,12.13
2018-12-20T02:59:56.665Z,10.90
2018-12-20T03:02:25.860Z,9.43
2018-12-20T03:04:55.180Z,9.17
2018-12-20T03:07:24.388Z,12.43
2018-12-20T03:09:53.672Z,9.27
2018-12-20T03:12:22.770Z,7.60
2018-12-20T03:14:51.911Z,12.20
2018-12-20T03:17:21.092Z,10.27
2018-12-20T03:19:50.252Z,11.50
2018-12-20T03:22:19.731Z,11.07
2018-12-20T03:24:49.128Z,8.30
2018-12-20T03:27:18.556Z,8.90
2018-12-20T03:29:48.000Z,8.13
2018-12-20T03:32:17.171Z,11.77
2018-12-20T03:34:46.334Z,8.93
2018-12-20T03:37:15.542Z,10.60
2018-12-20T03:39:45.120Z,10.23
2018-12-20T03:42:14.484Z,7.17
2018-12-20T03:44:43.632Z,6.77
2018-12-20T03:47:12.744Z,10.13
2018-12-20T03:49:42.042Z,8.30
2018-12-20T03:52:11.268Z,6.60
2018-12-20T03:54:40.570Z,5.70
2018-12-20T03:57:09.765Z,5.57
2018-12-20T03:59:38.877Z,6.37
2018-12-20T04:02:08.015Z,10.57
2018-12-20T04:04:37.200Z,6.70
2018-12-20T04:07:06.609Z,5.80
2018-12-20T04:09:35.804Z,7.63
2018-12-20T04:12:05.027Z,6.40
2018-12-20T04:14:34.070Z,6.90
2018-12-20T04:17:03.336Z,6.93
2018-12-20T04:19:32.428Z,37.90
2018-12-20T04:22:01.934Z,4.80
2018-12-20T04:24:31.311Z,7.53
2018-12-20T04:27:00.724Z,4.87
2018-12-20T04:29:29.801Z,9.83
2018-12-20T04:31:59.217Z,8.33
2018-12-20T04:34:28.647Z,8.03
2018-12-20T04:36:57.943Z,5.23
2018-12-20T04:39:27.202Z,5.83
2018-12-20T04:41:56.502Z,7.47
2018-12-20T04:44:25.824Z,7.10
2018-12-20T04:46:55.064Z,6.23
2018-12-20T04:49:24.431Z,4.87
2018-12-20T04:51:53.746Z,3.70
2018-12-20T04:54:23.029Z,10.33
2018-12-20T04:56:52.300Z,6.80
2018-12-20T04:59:21.660Z,4.60
2018-12-20T05:01:50.922Z,5.77
2018-12-20T05:04:20.095Z,4.50
2018-12-20T05:06:49.352Z,3.67
2018-12-20T05:09:18.637Z,4.73
2018-12-20T05:11:48.264Z,6.20
2018-12-20T05:14:17.518Z,3.87
2018-12-20T05:16:46.690Z,3.40
2018-12-20T05:19:15.899Z,3.63
2018-12-20T05:21:45.113Z,4.30
2018-12-20T05:24:14.279Z,5.87
2018-12-20T05:26:43.348Z,5.67
2018-12-20T05:29:12.496Z,3.87
2018-12-20T05:31:41.737Z,3.00
2018-12-20T05:34:10.955Z,9.60
2018-12-20T05:36:40.096Z,4.90
2018-12-20T05:39:09.334Z,4.40
2018-12-20T05:41:38.677Z,4.13
2018-12-20T05:44:08.214Z,3.50
2018-12-20T05:46:37.446Z,5.43
2018-12-20T05:49:06.650Z,4.03
2018-12-20T05:51:36.038Z,3.40
2018-12-20T05:54:05.249Z,3.40
2018-12-20T05:56:34.355Z,4.50
2018-12-20T05:59:03.399Z,4.57
2018-12-20T06:01:32.622Z,3.73
2018-12-20T06:04:01.839Z,3.40
2018-12-20T06:06:30.820Z,3.33
2018-12-20T06:09:00.040Z,3.53
2018-12-20T06:11:29.078Z,3.10
2018-12-20T06:13:58.911Z,3.83
2018-12-20T06:16:27.993Z,3.10
2018-12-20T06:18:57.097Z,4.00
2018-12-20T06:21:26.280Z,6.43
2018-12-20T06:23:55.462Z,7.87
2018-12-20T06:26:24.657Z,3.40
2018-12-20T06:28:53.868Z,3.73
2018-12-20T06:31:23.082Z,3.80
2018-12-20T06:33:52.312Z,4.30
2018-12-20T06:36:21.501Z,4.70
2018-12-20T06:38:50.727Z,4.27
2018-12-20T06:41:19.917Z,3.70
2018-12-20T06:43:48.995Z,6.10
2018-12-20T06:46:21.357Z,5.43
2018-12-20T06:48:49.351Z,4.20
2018-12-20T06:51:18.443Z,5.80
2018-12-20T06:53:47.511Z,4.20
2018-12-20T06:56:16.705Z,3.80
2018-12-20T06:58:45.811Z,5.93
2018-12-20T07:01:14.934Z,4.00
2018-12-20T07:03:44.121Z,4.30
2018-12-20T07:06:13.365Z,3.03
2018-12-20T07:08:42.542Z,4.13
2018-12-20T07:11:11.698Z,5.13
2018-12-20T07:13:40.937Z,4.13
2018-12-20T07:16:10.088Z,4.60
2018-12-20T07:18:39.195Z,4.63
2018-12-20T07:21:08.652Z,7.07
2018-12-20T07:23:37.749Z,4.90
2018-12-20T07:26:07.762Z,5.73
2018-12-20T07:28:37.050Z,7.13
2018-12-20T07:31:06.262Z,5.60
2018-12-20T07:33:35.529Z,4.37
2018-12-20T07:36:04.708Z,6.13
2018-12-20T07:38:33.923Z,10.30
2018-12-20T07:41:03.680Z,4.47
2018-12-20T07:43:32.861Z,5.40
2018-12-20T07:46:01.958Z,5.17
2018-12-20T07:48:32.247Z,9.53
2018-12-20T07:51:03.654Z,6.10
2018-12-20T07:53:33.093Z,5.50
2018-12-20T07:56:02.348Z,6.60
2018-12-20T07:58:31.528Z,5.97
2018-12-20T08:01:00.699Z,8.13
2018-12-20T08:03:29.806Z,8.47
2018-12-20T08:05:58.984Z,5.77
2018-12-20T08:08:28.274Z,8.70
2018-12-20T08:10:57.395Z,5.07
2018-12-20T08:13:26.457Z,8.43
2018-12-20T08:15:55.626Z,4.40
2018-12-20T08:18:24.960Z,5.90
2018-12-20T08:20:54.056Z,5.17
2018-12-20T08:23:23.242Z,5.43
2018-12-20T08:25:52.398Z,4.57
2018-12-20T08:28:21.536Z,5.60
2018-12-20T08:30:50.679Z,3.60
2018-12-20T08:33:19.767Z,4.60
2018-12-20T08:35:48.928Z,2.53
2018-12-20T08:38:18.086Z,6.60
2018-12-20T08:40:47.228Z,3.77
2018-12-20T08:43:16.294Z,3.37
2018-12-20T08:45:45.598Z,4.30
2018-12-20T08:48:14.646Z,3.47
2018-12-20T08:50:43.796Z,4.50
2018-12-20T08:53:12.876Z,3.13
2018-12-20T08:55:42.071Z,3.57
2018-12-20T08:58:11.288Z,4.77
2018-12-20T09:00:40.468Z,2.67
2018-12-20T09:03:09.516Z,2.63
2018-12-20T09:05:38.690Z,2.27
2018-12-20T09:08:07.780Z,3.83
2018-12-20T09:10:36.911Z,2.80
2018-12-20T09:13:09.590Z,3.87
2018-12-20T09:15:37.326Z,2.17
2018-12-20T09:18:06.448Z,3.27
2018-12-20T09:20:35.570Z,2.37
2018-12-20T09:23:05.654Z,3.13
2018-12-20T09:25:34.746Z,2.40
2018-12-20T09:28:03.894Z,2.67
2018-12-20T09:30:33.098Z,2.83
2018-12-20T09:33:02.284Z,3.17
2018-12-20T09:35:31.362Z,4.40
2018-12-20T09:38:01.119Z,2.13
2018-12-20T09:40:30.333Z,2.73
2018-12-20T09:42:59.460Z,2.40
2018-12-20T09:45:28.583Z,2.30
2018-12-20T09:48:02.882Z,3.10
2018-12-20T09:50:32.023Z,1.83
2018-12-20T09:53:01.331Z,1.93
2018-12-20T09:55:30.406Z,2.40
2018-12-20T09:57:59.482Z,2.17
2018-12-20T10:00:28.611Z,2.23
2018-12-20T10:02:57.688Z,1.93
2018-12-20T10:05:26.798Z,4.40
2018-12-20T10:07:55.882Z,3.40
2018-12-20T10:10:24.990Z,1.90
2018-12-20T10:12:54.146Z,1.87
2018-12-20T10:15:23.176Z,2.80
2018-12-20T10:17:52.300Z,2.80
2018-12-20T10:20:21.364Z,2.00
2018-12-20T10:22:50.523Z,1.73
2018-12-20T10:25:19.631Z,7.67
2018-12-20T10:27:48.727Z,3.80
2018-12-20T10:30:18.640Z,2.10
2018-12-20T10:32:47.816Z,2.63
2018-12-20T10:35:16.896Z,5.97
2018-12-20T10:37:48.721Z,1.80
2018-12-20T10:40:17.963Z,1.77
2018-12-20T10:42:47.073Z,1.73
2018-12-20T10:45:16.235Z,1.63
2018-12-20T10:47:45.363Z,2.60
2018-12-20T10:50:14.478Z,3.07
2018-12-20T10:52:43.617Z,1.57
2018-12-20T10:55:12.859Z,1.53
2018-12-20T10:57:42.050Z,2.40
2018-12-20T11:00:11.384Z,4.67
2018-12-20T11:02:45.739Z,1.53
2018-12-20T11:05:19.953Z,2.10
2018-12-20T11:07:54.377Z,2.80
2018-12-20T11:10:26.952Z,2.20
2018-12-20T11:12:56.913Z,4.13
2018-12-20T11:15:26.110Z,1.33
2018-12-20T11:17:55.220Z,1.20
2018-12-20T11:20:24.325Z,3.27
2018-12-20T11:22:53.430Z,5.37
2018-12-20T11:25:22.590Z,3.63
2018-12-20T11:27:51.682Z,0.83
2018-12-20T11:30:20.848Z,1.47
2018-12-20T11:32:49.941Z,6.10
2018-12-20T11:35:19.051Z,1.77
2018-12-20T11:37:48.180Z,1.33
2018-12-20T11:40:17.461Z,2.30
2018-12-20T11:42:46.542Z,1.57
2018-12-20T11:45:15.672Z,2.03
2018-12-20T11:47:46.101Z,3.03
2018-12-20T11:50:15.706Z,3.90
2018-12-20T11:52:44.873Z,1.47
2018-12-20T11:55:13.996Z,1.33
2018-12-20T11:57:43.110Z,1.70
2018-12-20T12:00:12.293Z,4.30
2018-12-20T12:02:41.455Z,1.47
2018-12-20T12:05:10.605Z,2.50
2018-12-20T12:07:39.710Z,1.60
2018-12-20T12:10:09.568Z,3.23
2018-12-20T12:12:38.653Z,1.93
2018-12-20T12:15:08.457Z,3.33
2018-12-20T12:17:37.526Z,1.07
2018-12-20T12:20:08.010Z,1.53
2018-12-20T12:22:37.129Z,0.90
2018-12-20T12:25:07.431Z,1.60
2018-12-20T12:27:36.644Z,1.90
2018-12-20T12:30:06.948Z,2.80
2018-12-20T12:32:36.098Z,0.87
2018-12-20T12:35:05.550Z,1.27
2018-12-20T12:37:35.107Z,7.73
2018-12-20T12:40:05.049Z,1.70
2018-12-20T12:42:34.200Z,0.90
2018-12-20T12:45:03.501Z,4.10
2018-12-20T12:47:37.747Z,2.20
2018-12-20T12:50:07.034Z,4.10
2018-12-20T12:52:36.297Z,1.40
2018-12-20T12:55:06.491Z,3.90
2018-12-20T12:57:37.790Z,1.07
2018-12-20T13:00:08.586Z,2.00
2018-12-20T13:02:37.834Z,2.57
2018-12-20T13:05:07.202Z,4.30
2018-12-20T13:07:39.194Z,2.83
2018-12-20T13:10:09.118Z,3.17
2018-12-20T13:12:38.402Z,3.80
2018-12-20T13:15:08.890Z,1.47
2018-12-20T13:17:38.227Z,1.43
2018-12-20T13:20:08.575Z,3.83
2018-12-20T13:22:37.767Z,1.20
2018-12-20T13:25:07.839Z,2.23
2018-12-20T13:27:38.089Z,0.90
2018-12-20T13:30:10.429Z,1.03
2018-12-20T13:32:39.618Z,1.27
2018-12-20T13:35:08.684Z,1.30
2018-12-20T13:37:37.909Z,1.17
2018-12-20T13:40:07.224Z,2.40
2018-12-20T13:42:36.398Z,1.10
2018-12-20T13:45:06.059Z,0.87
2018-12-20T13:47:35.261Z,1.03
2018-12-20T13:50:04.592Z,2.00
2018-12-20T13:52:33.879Z,2.33
2018-12-20T13:55:03.013Z,2.30
2018-12-20T13:57:32.131Z,1.00
2018-12-20T14:00:01.218Z,0.87
2018-12-20T14:02:30.387Z,1.43
2018-12-20T14:05:00.111Z,1.13
2018-12-20T14:07:29.311Z,3.10
2018-12-20T14:09:58.441Z,2.30
2018-12-20T14:12:27.522Z,1.60
2018-12-20T14:14:56.699Z,2.20
2018-12-20T14:17:25.900Z,4.63
2018-12-20T14:19:55.050Z,3.70
2018-12-20T14:22:24.127Z,2.00
2018-12-20T14:24:53.269Z,4.40
2018-12-20T14:27:22.321Z,9.37
2018-12-20T14:29:51.465Z,1.17
2018-12-20T14:32:20.562Z,1.37
2018-12-20T14:34:49.774Z,2.90
2018-12-20T14:37:18.942Z,2.97
2018-12-20T14:39:48.019Z,0.90
2018-12-20T14:42:17.174Z,3.77
2018-12-20T14:44:46.323Z,2.90
2018-12-20T14:47:15.420Z,2.40
2018-12-20T14:49:44.559Z,8.40
2018-12-20T14:52:13.681Z,2.40
2018-12-20T14:54:43.003Z,2.40
2018-12-20T14:57:12.269Z,1.77
2018-12-20T14:59:41.420Z,1.37
2018-12-20T15:02:10.551Z,6.60
2018-12-20T15:04:39.761Z,1.80
2018-12-20T15:07:08.912Z,9.30
2018-12-20T15:09:38.071Z,13.27
2018-12-20T15:12:07.182Z,5.87
2018-12-20T15:14:36.353Z,1.30
2018-12-20T15:17:05.654Z,3.00
2018-12-20T15:19:34.886Z,2.77
2018-12-20T15:22:04.093Z,1.43
2018-12-20T15:24:33.293Z,3.10
2018-12-20T15:27:02.442Z,2.60
2018-12-20T15:29:31.537Z,9.13
2018-12-20T15:32:00.770Z,1.27
2018-12-20T15:34:29.891Z,1.47
2018-12-20T15:36:59.030Z,9.07
2018-12-20T15:39:28.114Z,3.03
2018-12-20T15:41:57.256Z,3.17
2018-12-20T15:44:26.410Z,4.83
2018-12-20T15:46:55.578Z,3.00
2018-12-20T15:49:24.677Z,2.80
2018-12-20T15:51:53.907Z,3.30
2018-12-20T15:54:23.122Z,1.93
2018-12-20T15:56:52.219Z,1.30
2018-12-20T15:59:21.319Z,2.10
2018-12-20T16:01:50.490Z,2.87
2018-12-20T16:04:20.141Z,2.90
2018-12-20T16:06:49.302Z,4.47
2018-12-20T16:09:18.450Z,2.00
2018-12-20T16:11:47.671Z,1.93
2018-12-20T16:14:16.821Z,3.60
2018-12-20T16:16:46.090Z,7.20
2018-12-20T16:19:15.271Z,3.10
2018-12-20T16:21:44.646Z,2.50
2018-12-20T16:24:14.255Z,3.53
2018-12-20T16:26:43.476Z,3.03
2018-12-20T16:29:12.554Z,2.10
2018-12-20T16:31:41.718Z,4.27
2018-12-20T16:34:10.822Z,1.70
2018-12-20T16:36:40.020Z,6.40
2018-12-20T16:39:09.176Z,9.43
2018-12-20T16:41:39.071Z,4.93
2018-12-20T16:44:08.246Z,3.33
2018-12-20T16:46:37.466Z,3.50
2018-12-20T16:49:13.601Z,2.10
2018-12-20T16:51:37.951Z,3.83
2018-12-20T16:54:07.083Z,4.23
2018-12-20T16:56:36.233Z,3.23
2018-12-20T16:59:05.511Z,8.47
2018-12-20T17:01:34.689Z,2.13
2018-12-20T17:04:03.821Z,6.60
2018-12-20T17:06:32.907Z,3.40
2018-12-20T17:09:02.214Z,6.20
2018-12-20T17:11:31.355Z,5.43
2018-12-20T17:14:00.531Z,6.50
2018-12-20T17:16:29.649Z,1.80
2018-12-20T17:18:58.850Z,2.50
2018-12-20T17:21:28.016Z,8.10
2018-12-20T17:23:57.201Z,1.77
2018-12-20T17:26:26.249Z,2.00
2018-12-20T17:28:55.542Z,2.83
2018-12-20T17:31:24.671Z,2.27
2018-12-20T17:33:54.562Z,2.40
2018-12-20T17:36:23.681Z,6.70
2018-12-20T17:38:52.817Z,3.60
2018-12-20T17:41:21.958Z,2.20
2018-12-20T17:43:51.134Z,3.20
2018-12-20T17:46:20.293Z,6.50
2018-12-20T17:48:49.523Z,2.50
2018-12-20T17:51:19.310Z,3.47
2018-12-20T17:53:48.633Z,3.77
2018-12-20T17:56:17.843Z,2.00
2018-12-20T17:58:47.161Z,3.43
2018-12-20T18:01:16.351Z,2.97
2018-12-20T18:03:45.806Z,10.00
2018-12-20T18:06:14.955Z,2.70
2018-12-20T18:08:44.194Z,3.00
2018-12-20T18:11:13.316Z,6.60
2018-12-20T18:13:42.495Z,2.60
2018-12-20T18:16:11.784Z,2.70
2018-12-20T18:18:40.993Z,5.50
2018-12-20T18:21:10.147Z,4.90
2018-12-20T18:23:39.409Z,3.97
2018-12-20T18:26:08.666Z,3.47
2018-12-20T18:28:37.837Z,4.07
2018-12-20T18:31:06.995Z,4.10
2018-12-20T18:33:36.206Z,3.13
2018-12-20T18:36:05.326Z,5.13
2018-12-20T18:38:34.557Z,3.50
2018-12-20T18:41:03.683Z,4.10
2018-12-20T18:43:33.429Z,2.70
2018-12-20T18:46:02.957Z,6.70
2018-12-20T18:48:32.435Z,2.20
2018-12-20T18:51:01.868Z,2.20
2018-12-20T18:53:31.246Z,2.40
2018-12-20T18:56:00.920Z,5.30
2018-12-20T18:58:30.358Z,5.03
2018-12-20T19:00:59.729Z,1.87
2018-12-20T19:03:29.160Z,1.70
2018-12-20T19:05:58.465Z,2.00
2018-12-20T19:08:27.908Z,2.33
2018-12-20T19:10:57.353Z,5.33
2018-12-20T19:13:26.988Z,4.20
2018-12-20T19:15:56.549Z,1.70
2018-12-20T19:18:26.039Z,6.23
2018-12-20T19:20:55.821Z,1.60
2018-12-20T19:23:25.439Z,2.50
2018-12-20T19:25:55.480Z,3.97
2018-12-20T19:28:25.480Z,1.63
2018-12-20T19:30:54.931Z,2.23
2018-12-20T19:33:24.605Z,3.50
2018-12-20T19:35:53.858Z,4.27
2018-12-20T19:38:23.443Z,2.90
2018-12-20T19:40:53.201Z,10.30
2018-12-20T19:43:22.831Z,5.40
2018-12-20T19:45:53.391Z,2.73
2018-12-20T19:48:23.135Z,2.73
2018-12-20T19:50:52.727Z,2.60
2018-12-20T19:53:22.423Z,1.57
2018-12-20T19:55:52.041Z,4.50
2018-12-20T19:58:22.110Z,1.83
2018-12-20T20:00:52.359Z,2.10
2018-12-20T20:03:22.765Z,2.47
2018-12-20T20:05:52.339Z,2.10
2018-12-20T20:08:21.784Z,3.63
2018-12-20T20:10:51.474Z,2.47
2018-12-20T20:13:30.747Z,4.80
2018-12-20T20:15:55.484Z,2.60
2018-12-20T20:18:25.298Z,4.77
2018-12-20T20:20:55.124Z,2.80
2018-12-20T20:23:25.603Z,2.30
2018-12-20T20:25:55.334Z,1.67
2018-12-20T20:28:25.010Z,5.27
2018-12-20T20:30:54.483Z,1.77
2018-12-20T20:33:23.927Z,1.90
2018-12-20T20:35:54.313Z,2.90
2018-12-20T20:38:25.560Z,1.83
2018-12-20T20:40:55.053Z,2.03
2018-12-20T20:43:24.603Z,3.23
2018-12-20T20:45:53.977Z,3.73
2018-12-20T20:48:24.670Z,2.07
2018-12-20T20:50:53.833Z,3.23
2018-12-20T20:53:24.220Z,3.70
2018-12-20T20:55:53.300Z,1.23
2018-12-20T20:58:24.530Z,4.57
2018-12-20T21:00:53.702Z,3.33
2018-12-20T21:03:22.842Z,3.47
2018-12-20T21:05:52.001Z,2.13
2018-12-20T21:08:21.194Z,1.80
2018-12-20T21:10:50.358Z,1.70
2018-12-20T21:13:19.556Z,2.50
2018-12-20T21:15:49.111Z,2.20
2018-12-20T21:18:18.338Z,5.00
2018-12-20T21:20:47.434Z,3.00
2018-12-20T21:23:16.853Z,3.07
2018-12-20T21:25:46.615Z,4.53
2018-12-20T21:28:16.393Z,2.87
2018-12-20T21:30:46.090Z,5.70
2018-12-20T21:33:17.401Z,4.33
2018-12-20T21:35:46.848Z,3.43
2018-12-20T21:38:16.298Z,2.47
2018-12-20T21:40:45.762Z,2.30
2018-12-20T21:43:15.417Z,3.00
2018-12-20T21:45:44.893Z,6.60
2018-12-20T21:48:14.580Z,3.17
2018-12-20T21:50:44.442Z,4.27
2018-12-20T21:53:13.938Z,5.80
2018-12-20T21:55:43.642Z,2.87
2018-12-20T21:58:13.016Z,5.87
2018-12-20T22:00:42.638Z,3.20
2018-12-20T22:03:12.589Z,2.73
2018-12-20T22:05:41.978Z,3.87
2018-12-20T22:08:11.378Z,3.27
2018-12-20T22:10:41.062Z,2.90
2018-12-20T22:13:10.518Z,2.73
2018-12-20T22:15:40.567Z,6.40
2018-12-20T22:18:09.996Z,3.77
2018-12-20T22:20:47.292Z,3.17
2018-12-20T22:23:12.134Z,4.60
2018-12-20T22:25:41.647Z,4.07
2018-12-20T22:28:11.269Z,4.80
2018-12-20T22:30:40.974Z,3.40
2018-12-20T22:33:10.558Z,4.00
2018-12-20T22:35:40.383Z,1.87
2018-12-20T22:38:10.250Z,2.43
2018-12-20T22:40:40.059Z,2.70
2018-12-20T22:43:09.502Z,4.83
2018-12-20T22:45:39.111Z,1.93
2018-12-20T22:48:08.428Z,3.30
2018-12-20T22:50:37.494Z,3.23
2018-12-20T22:53:07.261Z,4.50
2018-12-20T22:55:36.510Z,4.33
2018-12-20T22:58:06.348Z,2.37
2018-12-20T23:00:35.584Z,4.43
2018-12-20T23:03:05.456Z,3.90
2018-12-20T23:05:34.626Z,2.70
2018-12-20T23:08:04.670Z,4.30
2018-12-20T23:10:33.845Z,4.90
2018-12-20T23:13:05.737Z,1.93
2018-12-20T23:15:34.940Z,4.10
2018-12-20T23:18:04.378Z,2.93
2018-12-20T23:20:33.555Z,1.90
2018-12-20T23:23:03.411Z,3.00
2018-12-20T23:25:32.629Z,3.27
2018-12-20T23:28:01.795Z,2.57
2018-12-20T23:30:30.956Z,2.57
2018-12-20T23:33:00.007Z,1.90
2018-12-20T23:35:29.145Z,4.53
2018-12-20T23:37:58.335Z,5.37
2018-12-20T23:40:27.401Z,7.70
2018-12-20T23:42:57.432Z,4.47
2018-12-20T23:45:26.497Z,2.20
2018-12-20T23:47:55.698Z,2.70
2018-12-20T23:50:24.820Z,1.53
2018-12-20T23:52:53.917Z,3.53
2018-12-20T23:55:23.055Z,4.83
2018-12-20T23:57:52.263Z,4.63
